Terminal Aerodrome Forecast
Issued by NWS

Home | Current Version | Previous Version | Text Only | Print | Product List | Glossary On
Versions: 1 2 3 4 5 6 7 8 9 10 11 12 13 14 15 16 17 18 19 20 21 22 23 24 25 26 27
000
FTUS43 KSGF 171000 AAB
TAFBBG
TAF AMD
KBBG 171002Z 1710/1806 14005KT 1/2SM FG OVC002
     FM171200 17006KT 2SM BR SCT002 BKN004 OVC010
     FM171500 19008KT P6SM VCTS BKN040CB BKN050
     FM171900 21008KT P6SM -SHRA SCT040 BKN060
     FM172300 15005KT P6SM BKN100=

USA.gov is the U.S. government's official web portal to all federal, state and local government web resources and services.